sensor_id;sensor_type;location;lat;lon;timestamp;P1;durP1;ratioP1;P2;durP2;ratioP2
84915;SDS011;75178;53.054;5.846;2024-02-23T00:00:40;2.40;;;0.60;;
84915;SDS011;75178;53.054;5.846;2024-02-23T00:03:24;7.00;;;1.05;;
84915;SDS011;75178;53.054;5.846;2024-02-23T00:06:08;3.35;;;0.65;;
84915;SDS011;75178;53.054;5.846;2024-02-23T00:08:54;2.83;;;0.65;;
84915;SDS011;75178;53.054;5.846;2024-02-23T00:11:39;11.95;;;1.20;;
84915;SDS011;75178;53.054;5.846;2024-02-23T00:14:23;7.30;;;1.48;;
84915;SDS011;75178;53.054;5.846;2024-02-23T00:17:07;7.05;;;1.27;;
84915;SDS011;75178;53.054;5.846;2024-02-23T00:19:51;3.10;;;1.02;;
84915;SDS011;75178;53.054;5.846;2024-02-23T00:22:35;8.07;;;1.20;;
84915;SDS011;75178;53.054;5.846;2024-02-23T00:25:21;5.07;;;1.38;;
84915;SDS011;75178;53.054;5.846;2024-02-23T00:28:06;13.52;;;2.00;;
84915;SDS011;75178;53.054;5.846;2024-02-23T00:30:50;14.65;;;1.55;;
84915;SDS011;75178;53.054;5.846;2024-02-23T00:33:34;8.07;;;2.35;;
84915;SDS011;75178;53.054;5.846;2024-02-23T00:36:18;6.85;;;1.52;;
84915;SDS011;75178;53.054;5.846;2024-02-23T00:39:02;8.43;;;1.20;;
84915;SDS011;75178;53.054;5.846;2024-02-23T00:41:48;10.60;;;1.33;;
84915;SDS011;75178;53.054;5.846;2024-02-23T00:44:32;18.05;;;3.10;;
84915;SDS011;75178;53.054;5.846;2024-02-23T00:47:16;13.77;;;1.40;;
84915;SDS011;75178;53.054;5.846;2024-02-23T00:50:01;19.02;;;3.35;;
84915;SDS011;75178;53.054;5.846;2024-02-23T00:52:45;11.75;;;2.25;;
84915;SDS011;75178;53.054;5.846;2024-02-23T00:55:29;15.93;;;2.60;;
84915;SDS011;75178;53.054;5.846;2024-02-23T00:58:15;14.35;;;1.98;;
84915;SDS011;75178;53.054;5.846;2024-02-23T01:00:59;15.98;;;2.33;;
84915;SDS011;75178;53.054;5.846;2024-02-23T01:03:43;19.27;;;2.22;;
84915;SDS011;75178;53.054;5.846;2024-02-23T01:06:27;16.27;;;2.35;;
84915;SDS011;75178;53.054;5.846;2024-02-23T01:09:12;13.93;;;2.85;;
84915;SDS011;75178;53.054;5.846;2024-02-23T01:11:56;21.83;;;4.38;;
84915;SDS011;75178;53.054;5.846;2024-02-23T01:14:41;19.48;;;2.70;;
84915;SDS011;75178;53.054;5.846;2024-02-23T01:17:25;21.02;;;2.40;;
84915;SDS011;75178;53.054;5.846;2024-02-23T01:20:09;15.18;;;2.33;;
84915;SDS011;75178;53.054;5.846;2024-02-23T01:22:54;17.38;;;3.15;;
84915;SDS011;75178;53.054;5.846;2024-02-23T01:25:38;13.75;;;2.22;;
84915;SDS011;75178;53.054;5.846;2024-02-23T01:28:22;26.08;;;3.35;;
84915;SDS011;75178;53.054;5.846;2024-02-23T01:31:09;18.83;;;2.80;;
84915;SDS011;75178;53.054;5.846;2024-02-23T01:33:53;11.35;;;2.55;;
84915;SDS011;75178;53.054;5.846;2024-02-23T01:36:37;15.55;;;2.53;;
84915;SDS011;75178;53.054;5.846;2024-02-23T01:39:21;21.75;;;2.95;;
84915;SDS011;75178;53.054;5.846;2024-02-23T01:42:06;26.25;;;4.03;;
84915;SDS011;75178;53.054;5.846;2024-02-23T01:44:51;19.02;;;2.85;;
84915;SDS011;75178;53.054;5.846;2024-02-23T01:47:37;15.45;;;2.35;;
84915;SDS011;75178;53.054;5.846;2024-02-23T01:50:21;7.25;;;1.75;;
84915;SDS011;75178;53.054;5.846;2024-02-23T01:53:05;11.90;;;3.38;;
84915;SDS011;75178;53.054;5.846;2024-02-23T01:55:49;16.80;;;3.10;;
84915;SDS011;75178;53.054;5.846;2024-02-23T01:58:35;14.77;;;2.30;;
84915;SDS011;75178;53.054;5.846;2024-02-23T02:01:21;12.40;;;2.72;;
84915;SDS011;75178;53.054;5.846;2024-02-23T02:04:06;12.63;;;2.10;;
84915;SDS011;75178;53.054;5.846;2024-02-23T02:06:50;19.20;;;2.55;;
84915;SDS011;75178;53.054;5.846;2024-02-23T02:09:34;11.75;;;2.75;;
84915;SDS011;75178;53.054;5.846;2024-02-23T02:12:25;17.80;;;2.60;;
84915;SDS011;75178;53.054;5.846;2024-02-23T02:15:10;20.30;;;2.73;;
84915;SDS011;75178;53.054;5.846;2024-02-23T02:17:54;15.68;;;2.10;;
84915;SDS011;75178;53.054;5.846;2024-02-23T02:20:40;27.58;;;2.33;;
84915;SDS011;75178;53.054;5.846;2024-02-23T02:23:35;10.57;;;2.15;;
84915;SDS011;75178;53.054;5.846;2024-02-23T02:26:19;13.02;;;2.53;;
84915;SDS011;75178;53.054;5.846;2024-02-23T02:29:03;11.25;;;2.40;;
84915;SDS011;75178;53.054;5.846;2024-02-23T02:31:47;13.27;;;2.55;;
84915;SDS011;75178;53.054;5.846;2024-02-23T02:34:31;14.63;;;2.35;;
84915;SDS011;75178;53.054;5.846;2024-02-23T02:37:17;13.32;;;2.47;;
84915;SDS011;75178;53.054;5.846;2024-02-23T02:40:01;19.02;;;2.00;;
84915;SDS011;75178;53.054;5.846;2024-02-23T02:42:45;21.77;;;2.42;;
84915;SDS011;75178;53.054;5.846;2024-02-23T02:45:29;12.35;;;1.80;;
84915;SDS011;75178;53.054;5.846;2024-02-23T02:48:13;15.43;;;3.15;;
84915;SDS011;75178;53.054;5.846;2024-02-23T02:50:57;10.25;;;2.30;;
84915;SDS011;75178;53.054;5.846;2024-02-23T02:53:43;13.38;;;2.83;;
84915;SDS011;75178;53.054;5.846;2024-02-23T02:56:27;10.18;;;1.75;;
84915;SDS011;75178;53.054;5.846;2024-02-23T02:59:11;24.92;;;3.15;;
84915;SDS011;75178;53.054;5.846;2024-02-23T03:01:55;16.23;;;2.55;;
84915;SDS011;75178;53.054;5.846;2024-02-23T03:04:46;11.95;;;2.17;;
84915;SDS011;75178;53.054;5.846;2024-02-23T03:07:30;12.63;;;2.38;;
84915;SDS011;75178;53.054;5.846;2024-02-23T03:10:15;10.60;;;2.80;;
84915;SDS011;75178;53.054;5.846;2024-02-23T03:13:00;19.95;;;3.20;;
84915;SDS011;75178;53.054;5.846;2024-02-23T03:15:44;15.38;;;2.28;;
84915;SDS011;75178;53.054;5.846;2024-02-23T03:18:28;16.85;;;2.80;;
84915;SDS011;75178;53.054;5.846;2024-02-23T03:21:12;20.42;;;2.67;;
84915;SDS011;75178;53.054;5.846;2024-02-23T03:23:56;15.95;;;2.10;;
84915;SDS011;75178;53.054;5.846;2024-02-23T03:26:42;20.90;;;3.75;;
84915;SDS011;75178;53.054;5.846;2024-02-23T03:29:26;11.98;;;2.13;;
84915;SDS011;75178;53.054;5.846;2024-02-23T03:32:10;13.45;;;1.83;;
84915;SDS011;75178;53.054;5.846;2024-02-23T03:34:54;7.03;;;1.45;;
84915;SDS011;75178;53.054;5.846;2024-02-23T03:37:38;16.83;;;2.10;;
84915;SDS011;75178;53.054;5.846;2024-02-23T03:40:22;14.95;;;2.88;;
84915;SDS011;75178;53.054;5.846;2024-02-23T03:43:08;13.13;;;2.35;;
84915;SDS011;75178;53.054;5.846;2024-02-23T03:45:52;12.70;;;2.70;;
84915;SDS011;75178;53.054;5.846;2024-02-23T03:48:36;11.52;;;1.98;;
84915;SDS011;75178;53.054;5.846;2024-02-23T03:51:20;19.48;;;3.15;;
84915;SDS011;75178;53.054;5.846;2024-02-23T03:54:04;17.20;;;2.38;;
84915;SDS011;75178;53.054;5.846;2024-02-23T03:56:48;10.93;;;1.77;;
84915;SDS011;75178;53.054;5.846;2024-02-23T03:59:35;11.18;;;1.75;;
84915;SDS011;75178;53.054;5.846;2024-02-23T04:02:19;10.07;;;2.33;;
84915;SDS011;75178;53.054;5.846;2024-02-23T04:05:04;13.18;;;2.10;;
84915;SDS011;75178;53.054;5.846;2024-02-23T04:07:49;13.27;;;2.08;;
84915;SDS011;75178;53.054;5.846;2024-02-23T04:10:33;17.83;;;2.15;;
84915;SDS011;75178;53.054;5.846;2024-02-23T04:13:18;9.25;;;1.92;;
84915;SDS011;75178;53.054;5.846;2024-02-23T04:16:03;16.88;;;1.98;;
84915;SDS011;75178;53.054;5.846;2024-02-23T04:18:48;22.40;;;2.78;;
84915;SDS011;75178;53.054;5.846;2024-02-23T04:21:32;8.60;;;1.48;;
84915;SDS011;75178;53.054;5.846;2024-02-23T04:24:17;9.57;;;2.22;;
84915;SDS011;75178;53.054;5.846;2024-02-23T04:27:01;15.32;;;1.85;;
84915;SDS011;75178;53.054;5.846;2024-02-23T04:29:45;14.02;;;3.08;;
84915;SDS011;75178;53.054;5.846;2024-02-23T04:32:31;9.05;;;1.92;;
84915;SDS011;75178;53.054;5.846;2024-02-23T04:35:15;14.05;;;1.95;;
84915;SDS011;75178;53.054;5.846;2024-02-23T04:37:59;16.35;;;1.63;;
84915;SDS011;75178;53.054;5.846;2024-02-23T04:40:44;14.32;;;2.17;;
84915;SDS011;75178;53.054;5.846;2024-02-23T04:43:28;10.80;;;1.60;;
84915;SDS011;75178;53.054;5.846;2024-02-23T04:46:12;17.73;;;2.28;;
84915;SDS011;75178;53.054;5.846;2024-02-23T04:48:58;11.23;;;2.17;;
84915;SDS011;75178;53.054;5.846;2024-02-23T04:51:42;5.50;;;1.75;;
84915;SDS011;75178;53.054;5.846;2024-02-23T04:54:26;9.73;;;1.67;;
84915;SDS011;75178;53.054;5.846;2024-02-23T04:57:10;13.25;;;1.75;;
84915;SDS011;75178;53.054;5.846;2024-02-23T04:59:54;18.13;;;2.13;;
84915;SDS011;75178;53.054;5.846;2024-02-23T05:02:38;8.40;;;2.10;;
84915;SDS011;75178;53.054;5.846;2024-02-23T05:05:24;10.05;;;1.95;;
84915;SDS011;75178;53.054;5.846;2024-02-23T05:08:08;13.80;;;2.28;;
84915;SDS011;75178;53.054;5.846;2024-02-23T05:10:52;18.98;;;1.98;;
84915;SDS011;75178;53.054;5.846;2024-02-23T05:13:36;9.57;;;1.83;;
84915;SDS011;75178;53.054;5.846;2024-02-23T05:16:20;11.02;;;2.17;;
84915;SDS011;75178;53.054;5.846;2024-02-23T05:19:04;11.50;;;2.47;;
84915;SDS011;75178;53.054;5.846;2024-02-23T05:21:50;6.47;;;1.90;;
84915;SDS011;75178;53.054;5.846;2024-02-23T05:24:34;17.15;;;2.20;;
84915;SDS011;75178;53.054;5.846;2024-02-23T05:27:18;8.20;;;2.05;;
84915;SDS011;75178;53.054;5.846;2024-02-23T05:30:02;14.75;;;2.80;;
84915;SDS011;75178;53.054;5.846;2024-02-23T05:32:47;11.75;;;2.10;;
84915;SDS011;75178;53.054;5.846;2024-02-23T05:35:32;9.30;;;2.10;;
84915;SDS011;75178;53.054;5.846;2024-02-23T05:38:17;17.45;;;2.28;;
84915;SDS011;75178;53.054;5.846;2024-02-23T05:41:02;14.88;;;2.35;;
84915;SDS011;75178;53.054;5.846;2024-02-23T05:43:46;11.25;;;1.90;;
84915;SDS011;75178;53.054;5.846;2024-02-23T05:46:30;14.80;;;2.70;;
84915;SDS011;75178;53.054;5.846;2024-02-23T05:49:15;12.48;;;2.80;;
84915;SDS011;75178;53.054;5.846;2024-02-23T05:51:59;9.77;;;2.95;;
84915;SDS011;75178;53.054;5.846;2024-02-23T05:54:45;21.00;;;3.17;;
84915;SDS011;75178;53.054;5.846;2024-02-23T05:57:29;17.25;;;4.25;;
84915;SDS011;75178;53.054;5.846;2024-02-23T06:00:14;10.43;;;3.10;;
84915;SDS011;75178;53.054;5.846;2024-02-23T06:02:59;14.40;;;3.17;;
84915;SDS011;75178;53.054;5.846;2024-02-23T06:05:43;16.23;;;4.35;;
84915;SDS011;75178;53.054;5.846;2024-02-23T06:08:27;18.35;;;3.53;;
84915;SDS011;75178;53.054;5.846;2024-02-23T06:11:12;11.85;;;3.38;;
84915;SDS011;75178;53.054;5.846;2024-02-23T06:13:57;12.85;;;2.90;;
84915;SDS011;75178;53.054;5.846;2024-02-23T06:16:41;9.65;;;2.83;;
84915;SDS011;75178;53.054;5.846;2024-02-23T06:19:25;28.52;;;5.57;;
84915;SDS011;75178;53.054;5.846;2024-02-23T06:22:09;13.95;;;2.67;;
84915;SDS011;75178;53.054;5.846;2024-02-23T06:24:53;17.85;;;3.15;;
84915;SDS011;75178;53.054;5.846;2024-02-23T06:27:39;11.40;;;2.72;;
84915;SDS011;75178;53.054;5.846;2024-02-23T06:30:23;14.57;;;2.88;;
84915;SDS011;75178;53.054;5.846;2024-02-23T06:33:07;15.50;;;3.20;;
84915;SDS011;75178;53.054;5.846;2024-02-23T06:35:51;13.77;;;3.63;;
84915;SDS011;75178;53.054;5.846;2024-02-23T06:38:35;14.85;;;4.07;;
84915;SDS011;75178;53.054;5.846;2024-02-23T06:41:19;12.00;;;3.90;;
84915;SDS011;75178;53.054;5.846;2024-02-23T06:44:05;12.88;;;3.83;;
84915;SDS011;75178;53.054;5.846;2024-02-23T06:46:49;16.90;;;4.25;;
84915;SDS011;75178;53.054;5.846;2024-02-23T06:49:33;15.32;;;4.82;;
84915;SDS011;75178;53.054;5.846;2024-02-23T06:52:17;13.90;;;4.47;;
84915;SDS011;75178;53.054;5.846;2024-02-23T06:55:01;17.20;;;6.30;;
84915;SDS011;75178;53.054;5.846;2024-02-23T06:57:46;14.50;;;5.35;;
84915;SDS011;75178;53.054;5.846;2024-02-23T07:00:31;16.45;;;4.53;;
84915;SDS011;75178;53.054;5.846;2024-02-23T07:03:16;12.10;;;4.57;;
84915;SDS011;75178;53.054;5.846;2024-02-23T07:06:00;13.15;;;4.40;;
84915;SDS011;75178;53.054;5.846;2024-02-23T07:08:44;13.05;;;4.25;;
84915;SDS011;75178;53.054;5.846;2024-02-23T07:11:28;14.00;;;3.40;;
84915;SDS011;75178;53.054;5.846;2024-02-23T07:14:12;11.25;;;3.00;;
84915;SDS011;75178;53.054;5.846;2024-02-23T07:16:58;9.32;;;2.80;;
84915;SDS011;75178;53.054;5.846;2024-02-23T07:19:42;8.98;;;2.20;;
84915;SDS011;75178;53.054;5.846;2024-02-23T07:22:26;10.63;;;2.60;;
84915;SDS011;75178;53.054;5.846;2024-02-23T07:25:10;12.38;;;2.65;;
84915;SDS011;75178;53.054;5.846;2024-02-23T07:27:55;13.07;;;3.00;;
84915;SDS011;75178;53.054;5.846;2024-02-23T07:30:39;10.63;;;2.70;;
84915;SDS011;75178;53.054;5.846;2024-02-23T07:33:25;8.75;;;2.50;;
84915;SDS011;75178;53.054;5.846;2024-02-23T07:36:13;6.13;;;2.92;;
84915;SDS011;75178;53.054;5.846;2024-02-23T07:38:58;8.55;;;3.30;;
84915;SDS011;75178;53.054;5.846;2024-02-23T07:41:42;14.18;;;4.07;;
84915;SDS011;75178;53.054;5.846;2024-02-23T07:44:26;9.82;;;3.83;;
84915;SDS011;75178;53.054;5.846;2024-02-23T07:47:10;8.00;;;3.78;;
84915;SDS011;75178;53.054;5.846;2024-02-23T07:49:56;10.35;;;3.88;;
84915;SDS011;75178;53.054;5.846;2024-02-23T07:52:40;5.78;;;3.78;;
84915;SDS011;75178;53.054;5.846;2024-02-23T07:55:24;12.35;;;4.55;;
84915;SDS011;75178;53.054;5.846;2024-02-23T07:58:08;11.68;;;4.82;;
84915;SDS011;75178;53.054;5.846;2024-02-23T08:00:52;7.47;;;4.68;;
84915;SDS011;75178;53.054;5.846;2024-02-23T08:03:37;10.80;;;5.13;;
84915;SDS011;75178;53.054;5.846;2024-02-23T08:06:22;14.65;;;5.32;;
84915;SDS011;75178;53.054;5.846;2024-02-23T08:09:06;12.13;;;5.45;;
84915;SDS011;75178;53.054;5.846;2024-02-23T08:11:50;15.40;;;6.72;;
84915;SDS011;75178;53.054;5.846;2024-02-23T08:14:34;13.15;;;5.60;;
84915;SDS011;75178;53.054;5.846;2024-02-23T08:17:19;8.60;;;5.68;;
84915;SDS011;75178;53.054;5.846;2024-02-23T08:20:03;10.95;;;5.43;;
84915;SDS011;75178;53.054;5.846;2024-02-23T08:22:49;14.05;;;4.88;;
84915;SDS011;75178;53.054;5.846;2024-02-23T08:25:33;13.40;;;5.00;;
84915;SDS011;75178;53.054;5.846;2024-02-23T08:28:17;8.45;;;3.95;;
84915;SDS011;75178;53.054;5.846;2024-02-23T08:31:02;10.10;;;3.97;;
84915;SDS011;75178;53.054;5.846;2024-02-23T08:33:46;10.20;;;3.70;;
84915;SDS011;75178;53.054;5.846;2024-02-23T08:36:31;6.90;;;3.30;;
84915;SDS011;75178;53.054;5.846;2024-02-23T08:39:16;9.82;;;3.80;;
84915;SDS011;75178;53.054;5.846;2024-02-23T08:42:00;9.50;;;3.10;;
84915;SDS011;75178;53.054;5.846;2024-02-23T08:44:44;8.88;;;2.83;;
84915;SDS011;75178;53.054;5.846;2024-02-23T08:47:29;8.85;;;2.95;;
84915;SDS011;75178;53.054;5.846;2024-02-23T08:50:13;9.85;;;2.50;;
84915;SDS011;75178;53.054;5.846;2024-02-23T08:52:57;12.20;;;3.28;;
84915;SDS011;75178;53.054;5.846;2024-02-23T08:55:43;7.32;;;2.50;;
84915;SDS011;75178;53.054;5.846;2024-02-23T08:58:27;11.90;;;2.97;;
84915;SDS011;75178;53.054;5.846;2024-02-23T09:01:11;4.95;;;2.25;;
84915;SDS011;75178;53.054;5.846;2024-02-23T09:03:55;10.05;;;2.22;;
84915;SDS011;75178;53.054;5.846;2024-02-23T09:06:39;13.00;;;3.63;;
84915;SDS011;75178;53.054;5.846;2024-02-23T09:09:24;9.65;;;2.25;;
84915;SDS011;75178;53.054;5.846;2024-02-23T09:12:09;3.88;;;1.85;;
84915;SDS011;75178;53.054;5.846;2024-02-23T09:14:54;8.98;;;1.70;;
84915;SDS011;75178;53.054;5.846;2024-02-23T09:17:39;8.63;;;1.83;;
84915;SDS011;75178;53.054;5.846;2024-02-23T09:20:23;7.43;;;1.92;;
84915;SDS011;75178;53.054;5.846;2024-02-23T09:23:07;8.40;;;2.85;;
84915;SDS011;75178;53.054;5.846;2024-02-23T09:25:52;15.32;;;2.22;;
84915;SDS011;75178;53.054;5.846;2024-02-23T09:28:37;9.30;;;2.15;;
84915;SDS011;75178;53.054;5.846;2024-02-23T09:31:21;7.35;;;1.35;;
84915;SDS011;75178;53.054;5.846;2024-02-23T09:34:05;8.45;;;1.35;;
84915;SDS011;75178;53.054;5.846;2024-02-23T09:36:49;9.32;;;1.80;;
84915;SDS011;75178;53.054;5.846;2024-02-23T09:39:33;9.18;;;1.92;;
84915;SDS011;75178;53.054;5.846;2024-02-23T09:42:18;16.52;;;3.28;;
84915;SDS011;75178;53.054;5.846;2024-02-23T09:45:07;7.63;;;2.10;;
84915;SDS011;75178;53.054;5.846;2024-02-23T09:47:56;10.75;;;2.15;;
84915;SDS011;75178;53.054;5.846;2024-02-23T09:50:40;16.70;;;2.95;;
84915;SDS011;75178;53.054;5.846;2024-02-23T09:53:25;7.88;;;2.13;;
84915;SDS011;75178;53.054;5.846;2024-02-23T09:56:09;11.38;;;2.28;;
84915;SDS011;75178;53.054;5.846;2024-02-23T09:58:55;5.47;;;1.92;;
84915;SDS011;75178;53.054;5.846;2024-02-23T10:01:41;6.13;;;1.75;;
84915;SDS011;75178;53.054;5.846;2024-02-23T10:04:26;6.45;;;2.00;;
84915;SDS011;75178;53.054;5.846;2024-02-23T10:07:14;13.77;;;2.63;;
84915;SDS011;75178;53.054;5.846;2024-02-23T10:09:58;7.47;;;2.70;;
84915;SDS011;75178;53.054;5.846;2024-02-23T10:12:42;9.32;;;2.70;;
84915;SDS011;75178;53.054;5.846;2024-02-23T10:15:28;7.32;;;2.22;;
84915;SDS011;75178;53.054;5.846;2024-02-23T10:18:14;5.28;;;2.10;;
84915;SDS011;75178;53.054;5.846;2024-02-23T10:20:58;4.82;;;1.63;;
84915;SDS011;75178;53.054;5.846;2024-02-23T10:23:43;7.65;;;2.05;;
84915;SDS011;75178;53.054;5.846;2024-02-23T10:26:28;5.75;;;2.10;;
84915;SDS011;75178;53.054;5.846;2024-02-23T10:29:12;5.35;;;1.60;;
84915;SDS011;75178;53.054;5.846;2024-02-23T10:31:57;11.98;;;2.70;;
84915;SDS011;75178;53.054;5.846;2024-02-23T10:34:42;7.07;;;1.80;;
84915;SDS011;75178;53.054;5.846;2024-02-23T10:37:28;8.07;;;2.10;;
84915;SDS011;75178;53.054;5.846;2024-02-23T10:40:13;12.80;;;1.95;;
84915;SDS011;75178;53.054;5.846;2024-02-23T10:42:59;6.88;;;1.92;;
84915;SDS011;75178;53.054;5.846;2024-02-23T10:45:53;7.82;;;1.75;;
84915;SDS011;75178;53.054;5.846;2024-02-23T10:48:39;9.35;;;1.85;;
84915;SDS011;75178;53.054;5.846;2024-02-23T10:51:25;9.75;;;2.03;;
84915;SDS011;75178;53.054;5.846;2024-02-23T10:54:10;7.72;;;1.92;;
84915;SDS011;75178;53.054;5.846;2024-02-23T10:56:55;9.10;;;1.63;;
84915;SDS011;75178;53.054;5.846;2024-02-23T10:59:39;7.10;;;1.88;;
84915;SDS011;75178;53.054;5.846;2024-02-23T11:02:24;6.20;;;1.55;;
84915;SDS011;75178;53.054;5.846;2024-02-23T11:05:10;7.75;;;1.75;;
84915;SDS011;75178;53.054;5.846;2024-02-23T11:07:57;4.35;;;1.55;;
84915;SDS011;75178;53.054;5.846;2024-02-23T11:10:42;4.72;;;1.80;;
84915;SDS011;75178;53.054;5.846;2024-02-23T11:13:30;7.03;;;1.52;;
84915;SDS011;75178;53.054;5.846;2024-02-23T11:16:21;12.40;;;2.05;;
84915;SDS011;75178;53.054;5.846;2024-02-23T11:21:52;10.07;;;1.88;;
84915;SDS011;75178;53.054;5.846;2024-02-23T11:24:41;9.82;;;2.28;;
84915;SDS011;75178;53.054;5.846;2024-02-23T11:27:30;7.68;;;1.80;;
84915;SDS011;75178;53.054;5.846;2024-02-23T11:30:16;9.98;;;2.28;;
84915;SDS011;75178;53.054;5.846;2024-02-23T11:33:01;4.72;;;1.83;;
84915;SDS011;75178;53.054;5.846;2024-02-23T11:35:46;7.75;;;1.85;;
84915;SDS011;75178;53.054;5.846;2024-02-23T11:38:30;5.07;;;1.83;;
84915;SDS011;75178;53.054;5.846;2024-02-23T11:41:17;6.13;;;1.63;;
84915;SDS011;75178;53.054;5.846;2024-02-23T11:44:01;10.93;;;1.63;;
84915;SDS011;75178;53.054;5.846;2024-02-23T11:46:46;8.65;;;1.55;;
84915;SDS011;75178;53.054;5.846;2024-02-23T11:49:30;7.15;;;1.77;;
84915;SDS011;75178;53.054;5.846;2024-02-23T11:52:14;10.68;;;1.70;;
84915;SDS011;75178;53.054;5.846;2024-02-23T11:54:59;5.55;;;1.60;;
84915;SDS011;75178;53.054;5.846;2024-02-23T11:57:44;9.57;;;2.00;;
84915;SDS011;75178;53.054;5.846;2024-02-23T12:00:29;4.78;;;1.65;;
84915;SDS011;75178;53.054;5.846;2024-02-23T12:03:13;5.35;;;1.70;;
84915;SDS011;75178;53.054;5.846;2024-02-23T12:05:57;7.20;;;1.90;;
84915;SDS011;75178;53.054;5.846;2024-02-23T12:08:42;8.25;;;1.48;;
84915;SDS011;75178;53.054;5.846;2024-02-23T12:11:27;6.28;;;1.65;;
84915;SDS011;75178;53.054;5.846;2024-02-23T12:14:13;5.40;;;1.55;;
84915;SDS011;75178;53.054;5.846;2024-02-23T12:16:57;5.72;;;1.73;;
84915;SDS011;75178;53.054;5.846;2024-02-23T12:19:41;6.35;;;1.70;;
84915;SDS011;75178;53.054;5.846;2024-02-23T12:22:26;8.60;;;1.85;;
84915;SDS011;75178;53.054;5.846;2024-02-23T12:25:11;7.43;;;1.83;;
84915;SDS011;75178;53.054;5.846;2024-02-23T12:27:56;7.68;;;2.15;;
84915;SDS011;75178;53.054;5.846;2024-02-23T12:30:42;13.52;;;2.05;;
84915;SDS011;75178;53.054;5.846;2024-02-23T12:33:27;6.43;;;2.28;;
84915;SDS011;75178;53.054;5.846;2024-02-23T12:36:11;10.25;;;2.13;;
84915;SDS011;75178;53.054;5.846;2024-02-23T12:38:56;8.23;;;2.20;;
84915;SDS011;75178;53.054;5.846;2024-02-23T12:41:40;9.43;;;1.92;;
84915;SDS011;75178;53.054;5.846;2024-02-23T12:44:24;8.88;;;1.92;;
84915;SDS011;75178;53.054;5.846;2024-02-23T12:47:09;10.43;;;2.25;;
84915;SDS011;75178;53.054;5.846;2024-02-23T12:49:53;7.35;;;1.95;;
84915;SDS011;75178;53.054;5.846;2024-02-23T12:52:38;7.35;;;1.83;;
84915;SDS011;75178;53.054;5.846;2024-02-23T12:55:23;17.10;;;2.50;;
84915;SDS011;75178;53.054;5.846;2024-02-23T12:58:07;7.22;;;1.90;;
84915;SDS011;75178;53.054;5.846;2024-02-23T13:00:51;7.40;;;2.10;;
84915;SDS011;75178;53.054;5.846;2024-02-23T13:03:37;8.90;;;2.53;;
84915;SDS011;75178;53.054;5.846;2024-02-23T13:06:22;10.35;;;2.50;;
84915;SDS011;75178;53.054;5.846;2024-02-23T13:09:06;6.38;;;1.95;;
84915;SDS011;75178;53.054;5.846;2024-02-23T13:11:50;10.23;;;2.45;;
84915;SDS011;75178;53.054;5.846;2024-02-23T13:14:35;7.70;;;2.00;;
84915;SDS011;75178;53.054;5.846;2024-02-23T13:17:19;4.45;;;1.60;;
84915;SDS011;75178;53.054;5.846;2024-02-23T13:20:05;8.90;;;1.63;;
84915;SDS011;75178;53.054;5.846;2024-02-23T13:22:50;5.70;;;1.50;;
84915;SDS011;75178;53.054;5.846;2024-02-23T13:25:34;8.40;;;1.83;;
84915;SDS011;75178;53.054;5.846;2024-02-23T13:28:36;4.07;;;1.05;;
84915;SDS011;75178;53.054;5.846;2024-02-23T13:31:20;5.22;;;1.02;;
84915;SDS011;75178;53.054;5.846;2024-02-23T13:34:04;4.40;;;1.10;;
84915;SDS011;75178;53.054;5.846;2024-02-23T13:36:49;3.03;;;1.05;;
84915;SDS011;75178;53.054;5.846;2024-02-23T13:39:33;3.83;;;0.70;;
84915;SDS011;75178;53.054;5.846;2024-02-23T13:42:17;4.60;;;1.85;;
84915;SDS011;75178;53.054;5.846;2024-02-23T13:45:02;8.52;;;1.05;;
84915;SDS011;75178;53.054;5.846;2024-02-23T13:47:55;3.55;;;0.80;;
84915;SDS011;75178;53.054;5.846;2024-02-23T13:50:40;4.53;;;1.10;;
84915;SDS011;75178;53.054;5.846;2024-02-23T13:53:26;9.15;;;1.80;;
84915;SDS011;75178;53.054;5.846;2024-02-23T13:56:11;4.95;;;1.30;;
84915;SDS011;75178;53.054;5.846;2024-02-23T13:58:55;9.10;;;1.70;;
84915;SDS011;75178;53.054;5.846;2024-02-23T14:01:39;10.98;;;1.70;;
84915;SDS011;75178;53.054;5.846;2024-02-23T14:04:23;8.68;;;1.52;;
84915;SDS011;75178;53.054;5.846;2024-02-23T14:07:07;8.77;;;1.50;;
84915;SDS011;75178;53.054;5.846;2024-02-23T14:09:52;11.63;;;2.63;;
84915;SDS011;75178;53.054;5.846;2024-02-23T14:12:36;9.10;;;1.55;;
84915;SDS011;75178;53.054;5.846;2024-02-23T14:15:21;9.10;;;1.90;;
84915;SDS011;75178;53.054;5.846;2024-02-23T14:18:05;13.60;;;1.98;;
84915;SDS011;75178;53.054;5.846;2024-02-23T14:20:49;7.13;;;1.67;;
84915;SDS011;75178;53.054;5.846;2024-02-23T14:23:34;12.27;;;2.10;;
84915;SDS011;75178;53.054;5.846;2024-02-23T14:26:19;7.68;;;1.52;;
84915;SDS011;75178;53.054;5.846;2024-02-23T14:29:03;8.52;;;2.17;;
84915;SDS011;75178;53.054;5.846;2024-02-23T14:31:47;10.07;;;1.60;;
84915;SDS011;75178;53.054;5.846;2024-02-23T14:34:32;9.40;;;1.75;;
84915;SDS011;75178;53.054;5.846;2024-02-23T14:37:16;8.80;;;1.67;;
84915;SDS011;75178;53.054;5.846;2024-02-23T14:40:00;9.63;;;1.60;;
84915;SDS011;75178;53.054;5.846;2024-02-23T14:42:45;6.38;;;1.30;;
84915;SDS011;75178;53.054;5.846;2024-02-23T14:45:32;3.42;;;1.20;;
84915;SDS011;75178;53.054;5.846;2024-02-23T14:48:16;7.13;;;2.05;;
84915;SDS011;75178;53.054;5.846;2024-02-23T14:51:00;15.15;;;3.08;;
84915;SDS011;75178;53.054;5.846;2024-02-23T14:53:44;9.98;;;2.65;;
84915;SDS011;75178;53.054;5.846;2024-02-23T14:56:29;8.18;;;1.90;;
84915;SDS011;75178;53.054;5.846;2024-02-23T14:59:14;12.40;;;2.25;;
84915;SDS011;75178;53.054;5.846;2024-02-23T15:01:59;7.40;;;1.95;;
84915;SDS011;75178;53.054;5.846;2024-02-23T15:04:43;7.35;;;1.63;;
84915;SDS011;75178;53.054;5.846;2024-02-23T15:07:27;10.65;;;1.92;;
84915;SDS011;75178;53.054;5.846;2024-02-23T15:10:11;9.07;;;1.40;;
84915;SDS011;75178;53.054;5.846;2024-02-23T15:12:55;13.32;;;2.15;;
84915;SDS011;75178;53.054;5.846;2024-02-23T15:15:41;8.35;;;1.67;;
84915;SDS011;75178;53.054;5.846;2024-02-23T15:18:25;8.55;;;2.00;;
84915;SDS011;75178;53.054;5.846;2024-02-23T15:21:09;10.75;;;2.10;;
84915;SDS011;75178;53.054;5.846;2024-02-23T15:23:53;5.68;;;1.85;;
84915;SDS011;75178;53.054;5.846;2024-02-23T15:26:37;11.45;;;2.45;;
84915;SDS011;75178;53.054;5.846;2024-02-23T15:29:21;10.10;;;2.45;;
84915;SDS011;75178;53.054;5.846;2024-02-23T15:32:07;14.15;;;2.17;;
84915;SDS011;75178;53.054;5.846;2024-02-23T15:34:51;10.00;;;2.10;;
84915;SDS011;75178;53.054;5.846;2024-02-23T15:37:35;8.82;;;1.95;;
84915;SDS011;75178;53.054;5.846;2024-02-23T15:40:19;8.30;;;1.90;;
84915;SDS011;75178;53.054;5.846;2024-02-23T15:43:04;7.57;;;2.22;;
84915;SDS011;75178;53.054;5.846;2024-02-23T15:45:48;15.65;;;2.90;;
84915;SDS011;75178;53.054;5.846;2024-02-23T15:48:33;6.22;;;2.20;;
84915;SDS011;75178;53.054;5.846;2024-02-23T15:51:17;11.40;;;2.08;;
84915;SDS011;75178;53.054;5.846;2024-02-23T15:54:02;15.82;;;2.10;;
84915;SDS011;75178;53.054;5.846;2024-02-23T15:56:47;11.35;;;2.35;;
84915;SDS011;75178;53.054;5.846;2024-02-23T15:59:31;9.23;;;1.73;;
84915;SDS011;75178;53.054;5.846;2024-02-23T16:02:15;9.07;;;1.83;;
84915;SDS011;75178;53.054;5.846;2024-02-23T16:05:00;9.43;;;2.15;;
84915;SDS011;75178;53.054;5.846;2024-02-23T16:07:45;8.90;;;1.55;;
84915;SDS011;75178;53.054;5.846;2024-02-23T16:10:29;7.65;;;1.50;;
84915;SDS011;75178;53.054;5.846;2024-02-23T16:13:13;8.82;;;1.42;;
84915;SDS011;75178;53.054;5.846;2024-02-23T16:15:58;9.27;;;1.73;;
84915;SDS011;75178;53.054;5.846;2024-02-23T16:18:42;8.43;;;1.30;;
84915;SDS011;75178;53.054;5.846;2024-02-23T16:21:27;9.93;;;1.85;;
84915;SDS011;75178;53.054;5.846;2024-02-23T16:24:11;8.73;;;2.00;;
84915;SDS011;75178;53.054;5.846;2024-02-23T16:26:56;10.52;;;1.77;;